Time;durP1;ratioP1;P1;durP2;ratioP2;P2;SDS_P1;SDS_P2;PMS_P1;PMS_P2;Temp;Humidity;BMP_temperature;BMP_pressure;BME280_temperature;BME280_humidity;BME280_pressure;Samples;Min_cycle;Max_cycle;Signal;HPM_P1;HPM_P2
2024/01/23 00:00:41;;;;;;;;;;;;;;;21.67;31.06;101404.03;5040364;28;19948;-73
2024/01/23 00:03:06;;;;;;;;;;;;;;;21.65;30.88;101410.63;5042134;28;19935;-72
2024/01/23 00:05:31;;;;;;;;;;;;;;;21.64;31.04;101398.13;5038283;28;19919;-73
2024/01/23 00:07:57;;;;;;;;;;;;;;;21.62;30.96;101422.66;5045503;28;19925;-72
2024/01/23 00:10:23;;;;;;;;;;;;;;;21.59;30.70;101414.91;5033770;28;20298;-72
2024/01/23 00:12:48;;;;;;;;;;;;;;;21.56;31.07;101414.38;5036202;28;19917;-73
2024/01/23 00:15:14;;;;;;;;;;;;;;;21.55;31.04;101418.97;5051010;28;19956;-72
2024/01/23 00:17:39;;;;;;;;;;;;;;;21.53;30.88;101437.22;5043000;28;19913;-73
2024/01/23 00:20:04;;;;;;;;;;;;;;;21.50;30.83;101429.47;5035755;28;19924;-73
2024/01/23 00:22:29;;;;;;;;;;;;;;;21.47;30.83;101446.03;5039118;28;19925;-73
2024/01/23 00:24:55;;;;;;;;;;;;;;;21.45;30.86;101445.34;5040269;28;20118;-72
2024/01/23 00:27:20;;;;;;;;;;;;;;;21.43;30.80;101452.81;5041224;28;19924;-73
2024/01/23 00:29:45;;;;;;;;;;;;;;;21.40;30.87;101462.09;5037159;28;20275;-73
2024/01/23 00:32:10;;;;;;;;;;;;;;;21.38;30.81;101458.72;5040130;28;19920;-73
2024/01/23 00:34:35;;;;;;;;;;;;;;;21.36;31.07;101449.94;5034832;28;19925;-73
2024/01/23 00:37:03;;;;;;;;;;;;;;;21.35;31.05;101466.34;5053213;28;19913;-73
2024/01/23 00:39:28;;;;;;;;;;;;;;;21.33;30.93;101471.94;5042685;28;19913;-72
2024/01/23 00:41:53;;;;;;;;;;;;;;;21.30;31.03;101465.97;5051284;28;19923;-72
2024/01/23 00:44:18;;;;;;;;;;;;;;;21.28;30.87;101470.72;5042942;28;20393;-72
2024/01/23 00:46:43;;;;;;;;;;;;;;;21.26;30.81;101473.59;5029102;28;19913;-72
2024/01/23 00:49:08;;;;;;;;;;;;;;;21.24;31.08;101478.34;5041835;28;19917;-73
2024/01/23 00:51:34;;;;;;;;;;;;;;;21.22;30.97;101486.59;5045319;28;19913;-73
2024/01/23 00:54:00;;;;;;;;;;;;;;;21.21;31.08;101494.91;5042830;28;19921;-73
2024/01/23 00:56:25;;;;;;;;;;;;;;;21.18;30.85;101496.06;5041978;28;19917;-73
2024/01/23 00:58:50;;;;;;;;;;;;;;;21.16;31.06;101495.41;5037743;28;20015;-73
2024/01/23 01:01:16;;;;;;;;;;;;;;;21.15;31.18;101490.16;5034162;28;19917;-73
2024/01/23 01:03:41;;;;;;;;;;;;;;;21.13;31.22;101505.72;5034379;28;19914;-73
2024/01/23 01:06:06;;;;;;;;;;;;;;;21.11;30.89;101522.13;5037204;28;19956;-74
2024/01/23 01:08:31;;;;;;;;;;;;;;;21.10;31.20;101503.34;5039729;28;20294;-73
2024/01/23 01:10:57;;;;;;;;;;;;;;;21.08;30.95;101549.47;5034827;28;19919;-73
2024/01/23 01:13:22;;;;;;;;;;;;;;;21.05;30.79;101533.59;5037330;28;20775;-72
2024/01/23 01:15:47;;;;;;;;;;;;;;;21.02;30.98;101535.78;5034472;28;19952;-72
2024/01/23 01:18:12;;;;;;;;;;;;;;;21.01;31.17;101531.38;5037814;28;19912;-73
2024/01/23 01:20:37;;;;;;;;;;;;;;;20.99;31.23;101534.28;5041359;28;19913;-73
2024/01/23 01:23:03;;;;;;;;;;;;;;;20.96;31.09;101548.94;5040403;28;19917;-72
2024/01/23 01:25:28;;;;;;;;;;;;;;;20.94;31.17;101555.53;5042163;28;20439;-73
2024/01/23 01:27:54;;;;;;;;;;;;;;;20.92;31.25;101550.31;5044127;28;19944;-72
2024/01/23 01:30:21;;;;;;;;;;;;;;;20.90;30.90;101549.63;5035804;28;20298;-73
2024/01/23 01:32:46;;;;;;;;;;;;;;;20.90;30.87;101557.75;5036151;28;19917;-73
2024/01/23 01:35:12;;;;;;;;;;;;;;;20.89;30.88;101560.59;5038959;28;19939;-73
2024/01/23 01:37:37;;;;;;;;;;;;;;;20.87;31.31;101551.81;5034537;28;19913;-72
2024/01/23 01:40:03;;;;;;;;;;;;;;;20.87;31.12;101565.34;5033280;28;19917;-73
2024/01/23 01:42:28;;;;;;;;;;;;;;;20.85;31.04;101570.03;5032318;28;19936;-73
2024/01/23 01:44:53;;;;;;;;;;;;;;;20.84;31.13;101568.34;5037202;28;19971;-74
2024/01/23 01:47:18;;;;;;;;;;;;;;;20.82;31.21;101560.44;5040187;28;19924;-72
2024/01/23 01:49:43;;;;;;;;;;;;;;;20.81;31.11;101569.53;5050029;28;19927;-73
2024/01/23 01:52:10;;;;;;;;;;;;;;;20.81;31.28;101574.09;5044454;28;20458;-71
2024/01/23 01:54:35;;;;;;;;;;;;;;;20.79;31.29;101574.25;5041434;28;19921;-73
2024/01/23 01:57:00;;;;;;;;;;;;;;;20.78;31.14;101582.53;5038646;28;19980;-72
2024/01/23 01:59:26;;;;;;;;;;;;;;;20.77;31.10;101588.94;5032812;28;19921;-72
2024/01/23 02:01:51;;;;;;;;;;;;;;;20.74;30.98;101590.13;5035505;28;20020;-72
2024/01/23 02:04:16;;;;;;;;;;;;;;;20.73;30.93;101610.06;5037996;28;19913;-72
2024/01/23 02:06:41;;;;;;;;;;;;;;;20.22;30.92;101560.53;5036695;28;20365;-73
2024/01/23 02:09:07;;;;;;;;;;;;;;;20.71;30.94;101630.97;5039016;28;19921;-73
2024/01/23 02:11:33;;;;;;;;;;;;;;;20.69;31.34;101628.44;5037858;28;19928;-73
2024/01/23 02:13:58;;;;;;;;;;;;;;;20.67;31.04;101629.63;5034478;28;19977;-73
2024/01/23 02:16:23;;;;;;;;;;;;;;;20.65;31.12;101632.50;5039311;28;20000;-73
2024/01/23 02:18:48;;;;;;;;;;;;;;;20.64;31.14;101644.28;5031475;28;19924;-73
2024/01/23 02:21:13;;;;;;;;;;;;;;;20.62;31.29;101637.38;5043823;28;19918;-72
2024/01/23 02:23:39;;;;;;;;;;;;;;;20.60;30.98;101650.19;5049267;28;20007;-72
2024/01/23 02:26:04;;;;;;;;;;;;;;;20.59;31.28;101659.31;5031820;28;19967;-73
2024/01/23 02:28:29;;;;;;;;;;;;;;;20.57;31.12;101656.78;5029981;28;20388;-73
2024/01/23 02:30:54;;;;;;;;;;;;;;;20.56;31.32;101662.31;5041048;28;19917;-72
2024/01/23 02:33:19;;;;;;;;;;;;;;;20.55;30.87;101657.94;5039800;28;19972;-71
2024/01/23 02:35:45;;;;;;;;;;;;;;;20.52;30.98;101664.50;5037954;28;19932;-73
2024/01/23 02:38:10;;;;;;;;;;;;;;;20.50;30.95;101655.72;5045140;28;20373;-72
2024/01/23 02:40:35;;;;;;;;;;;;;;;20.49;31.14;101650.47;5038283;28;19925;-73
2024/01/23 02:43:00;;;;;;;;;;;;;;;20.46;31.23;101663.25;5028193;28;19917;-72
2024/01/23 02:45:25;;;;;;;;;;;;;;;20.45;31.17;101660.72;5048905;28;19931;-71
2024/01/23 02:47:51;;;;;;;;;;;;;;;20.43;31.24;101673.53;5048428;28;20014;-73
2024/01/23 02:50:16;;;;;;;;;;;;;;;20.42;31.23;101677.25;5041799;28;19929;-72
2024/01/23 02:52:41;;;;;;;;;;;;;;;20.42;30.94;101677.25;5030612;28;19978;-73
2024/01/23 02:55:06;;;;;;;;;;;;;;;20.39;31.12;101675.72;5031664;28;20642;-73
2024/01/23 02:57:32;;;;;;;;;;;;;;;20.38;31.29;101686.66;5033920;28;19914;-71
2024/01/23 02:59:57;;;;;;;;;;;;;;;20.37;31.16;101693.09;5047462;28;19913;-73
2024/01/23 03:02:22;;;;;;;;;;;;;;;20.35;31.27;101693.25;5041935;28;19913;-72
2024/01/23 03:04:48;;;;;;;;;;;;;;;20.32;30.97;101682.75;5039393;28;19917;-73
2024/01/23 03:07:13;;;;;;;;;;;;;;;20.31;31.05;101701.84;5036702;28;19913;-73
2024/01/23 03:09:38;;;;;;;;;;;;;;;20.31;31.37;101696.44;5032731;28;19937;-73
2024/01/23 03:12:19;;;;;;;;;;;;;;;20.20;31.46;101676.78;5031514;28;19940;-74
2024/01/23 03:14:44;;;;;;;;;;;;;;;20.28;31.05;101702.16;5040282;28;19922;-72
2024/01/23 03:17:10;;;;;;;;;;;;;;;20.26;30.93;101714.94;5030414;28;20025;-73
2024/01/23 03:19:35;;;;;;;;;;;;;;;20.22;31.11;101720.69;5034661;28;19960;-73
2024/01/23 03:22:01;;;;;;;;;;;;;;;20.20;31.20;101722.69;5040928;28;19918;-72
2024/01/23 03:24:26;;;;;;;;;;;;;;;20.18;31.10;101734.66;5037607;28;19956;-72
2024/01/23 03:26:51;;;;;;;;;;;;;;;20.16;31.46;101729.38;5035436;28;20011;-73
2024/01/23 03:29:16;;;;;;;;;;;;;;;20.15;31.33;101751.16;5035213;28;19931;-73
2024/01/23 03:31:41;;;;;;;;;;;;;;;20.14;31.65;101754.88;5039134;28;19912;-71
2024/01/23 03:34:06;;;;;;;;;;;;;;;20.12;31.29;101760.41;5049091;28;20001;-73
2024/01/23 03:36:32;;;;;;;;;;;;;;;20.10;31.60;101758.88;5044396;28;19918;-73
2024/01/23 03:38:57;;;;;;;;;;;;;;;20.09;31.35;101757.16;5040037;28;19913;-73
2024/01/23 03:41:22;;;;;;;;;;;;;;;20.08;31.66;101763.56;5032781;28;19917;-73
2024/01/23 03:43:47;;;;;;;;;;;;;;;20.06;31.54;101771.00;5035319;28;20542;-73
2024/01/23 03:46:13;;;;;;;;;;;;;;;20.04;31.37;101765.72;5033115;28;19917;-73
2024/01/23 03:48:38;;;;;;;;;;;;;;;20.02;31.41;101778.56;5031295;28;19913;-74
2024/01/23 03:51:04;;;;;;;;;;;;;;;20.02;31.50;101783.94;5045948;28;19940;-72
2024/01/23 03:53:29;;;;;;;;;;;;;;;20.01;31.59;101792.19;5034835;28;20008;-73
2024/01/23 03:55:54;;;;;;;;;;;;;;;19.99;31.71;101800.44;5046859;28;19917;-74
2024/01/23 03:58:19;;;;;;;;;;;;;;;19.99;31.55;101797.75;5052283;28;19914;-72
2024/01/23 04:00:44;;;;;;;;;;;;;;;19.97;31.72;101792.50;5047037;28;19956;-73
2024/01/23 04:03:10;;;;;;;;;;;;;;;19.97;32.03;101794.38;5040185;28;19916;-74
2024/01/23 04:05:35;;;;;;;;;;;;;;;19.98;32.23;101812.25;5037421;28;20382;-74
2024/01/23 04:08:01;;;;;;;;;;;;;;;19.97;32.42;101824.91;5036535;28;19931;-73
2024/01/23 04:10:26;;;;;;;;;;;;;;;19.98;32.39;101825.75;5040215;28;19921;-73
2024/01/23 04:12:52;;;;;;;;;;;;;;;19.97;32.39;101824.91;5043907;28;19913;-73
2024/01/23 04:15:17;;;;;;;;;;;;;;;19.98;32.54;101840.09;5038538;28;19984;-78
2024/01/23 04:17:42;;;;;;;;;;;;;;;19.97;32.41;101843.81;5037494;28;19918;-73
2024/01/23 04:20:08;;;;;;;;;;;;;;;19.98;32.49;101856.28;5044640;28;19916;-73
2024/01/23 04:22:35;;;;;;;;;;;;;;;20.01;32.84;101865.06;5037199;28;19918;-74
2024/01/23 04:25:00;;;;;;;;;;;;;;;20.01;32.51;101867.78;5040130;28;19922;-74
2024/01/23 04:27:25;;;;;;;;;;;;;;;20.02;32.73;101878.44;5046418;28;19913;-74
2024/01/23 04:29:50;;;;;;;;;;;;;;;20.03;32.75;101881.97;5042123;28;19917;-74
2024/01/23 04:32:18;;;;;;;;;;;;;;;20.03;32.72;101888.22;5038807;28;19914;-77
2024/01/23 04:34:43;;;;;;;;;;;;;;;20.04;32.47;101887.22;5036211;28;19925;-75
2024/01/23 04:37:09;;;;;;;;;;;;;;;20.06;32.61;101889.78;5033264;28;20251;-76
2024/01/23 04:39:34;;;;;;;;;;;;;;;20.07;32.55;101907.66;5040767;28;19963;-74
2024/01/23 04:41:59;;;;;;;;;;;;;;;20.07;32.71;101900.41;5037732;28;19913;-74
2024/01/23 04:44:24;;;;;;;;;;;;;;;20.08;32.30;101899.41;5048069;28;19940;-74
2024/01/23 04:46:49;;;;;;;;;;;;;;;20.09;32.30;101908.34;5049230;28;20027;-80
2024/01/23 04:49:14;;;;;;;;;;;;;;;20.10;32.47;101910.06;5038319;28;19917;-82
2024/01/23 04:51:40;;;;;;;;;;;;;;;20.10;32.25;101918.16;5035079;28;19939;-77
2024/01/23 04:54:05;;;;;;;;;;;;;;;20.10;32.13;101919.03;5048892;28;19928;-80
2024/01/23 04:56:30;;;;;;;;;;;;;;;20.11;32.40;101926.13;5036510;28;20317;-79
2024/01/23 04:58:55;;;;;;;;;;;;;;;20.13;31.98;101942.16;5032134;28;20398;-79
2024/01/23 05:01:21;;;;;;;;;;;;;;;20.14;32.30;101941.16;5033379;28;20428;-80
2024/01/23 05:03:46;;;;;;;;;;;;;;;20.15;32.02;101968.00;5041244;28;19917;-79
2024/01/23 05:06:11;;;;;;;;;;;;;;;20.16;31.96;101947.25;5040157;28;19924;-78
2024/01/23 05:08:36;;;;;;;;;;;;;;;20.17;32.13;101943.53;5051899;28;19932;-77
2024/01/23 05:11:01;;;;;;;;;;;;;;;20.18;32.20;101945.25;5046943;28;19916;-77
2024/01/23 05:13:26;;;;;;;;;;;;;;;20.20;31.96;101956.75;5041090;28;19917;-82
2024/01/23 05:15:52;;;;;;;;;;;;;;;20.21;32.08;101953.88;5039135;28;19917;-80
2024/01/23 05:18:17;;;;;;;;;;;;;;;20.22;32.01;101971.81;5032955;28;19917;-81
2024/01/23 05:20:42;;;;;;;;;;;;;;;20.24;32.13;101974.34;5036258;28;19987;-81
2024/01/23 05:23:07;;;;;;;;;;;;;;;20.27;31.92;101986.72;5036381;28;19921;-80
2024/01/23 05:25:32;;;;;;;;;;;;;;;20.27;32.01;101995.66;5034176;28;19964;-80
2024/01/23 05:27:58;;;;;;;;;;;;;;;20.29;32.18;101996.34;5034810;28;20000;-81
2024/01/23 05:30:23;;;;;;;;;;;;;;;20.31;32.24;102001.63;5040878;28;19923;-79
2024/01/23 05:32:49;;;;;;;;;;;;;;;20.32;32.04;102004.16;5034894;28;19921;-76
2024/01/23 05:35:14;;;;;;;;;;;;;;;20.34;32.03;102004.84;5036170;28;19917;-79
2024/01/23 05:37:39;;;;;;;;;;;;;;;20.37;31.96;102023.44;5039700;28;19952;-79
2024/01/23 05:40:05;;;;;;;;;;;;;;;20.38;31.76;102025.13;5048466;28;19935;-78
2024/01/23 05:42:30;;;;;;;;;;;;;;;20.39;31.94;102032.28;5052155;28;19917;-79
2024/01/23 05:44:56;;;;;;;;;;;;;;;20.41;31.77;102027.53;5046872;28;19921;-79
2024/01/23 05:47:21;;;;;;;;;;;;;;;20.42;31.64;102040.03;5030238;28;20487;-76
2024/01/23 05:49:46;;;;;;;;;;;;;;;20.45;31.66;102038.91;5035833;28;19917;-77
2024/01/23 05:52:11;;;;;;;;;;;;;;;20.46;31.84;102046.00;5041891;28;19909;-73
2024/01/23 05:54:38;;;;;;;;;;;;;;;20.48;31.72;102062.97;5045242;28;19916;-76
2024/01/23 05:57:03;;;;;;;;;;;;;;;20.50;31.82;102060.09;5059474;28;20455;-77
2024/01/23 05:59:29;;;;;;;;;;;;;;;20.52;31.67;102055.38;5052723;28;19913;-76
2024/01/23 06:01:54;;;;;;;;;;;;;;;20.54;31.80;102066.91;5030541;28;19917;-74
2024/01/23 06:04:20;;;;;;;;;;;;;;;20.56;31.62;102068.47;5039737;28;19917;-74
2024/01/23 06:06:45;;;;;;;;;;;;;;;20.57;31.50;102074.72;5047228;28;19962;-73
2024/01/23 06:09:10;;;;;;;;;;;;;;;20.59;31.81;102073.53;5042374;28;19932;-74
2024/01/23 06:11:37;;;;;;;;;;;;;;;20.61;31.63;102079.66;5030887;28;19917;-74
2024/01/23 06:14:03;;;;;;;;;;;;;;;20.62;31.52;102075.94;5036729;28;19967;-75
2024/01/23 06:16:28;;;;;;;;;;;;;;;20.64;31.45;102092.00;5032299;28;19917;-74
2024/01/23 06:18:53;;;;;;;;;;;;;;;20.65;31.42;102089.16;5039608;28;19909;-74
2024/01/23 06:21:18;;;;;;;;;;;;;;;20.66;31.61;102093.56;5046492;28;19955;-74
2024/01/23 06:23:44;;;;;;;;;;;;;;;20.69;31.28;102114.03;5039812;28;19921;-75
2024/01/23 06:26:09;;;;;;;;;;;;;;;20.72;31.58;102117.25;5032990;28;19921;-75
2024/01/23 06:28:34;;;;;;;;;;;;;;;20.74;31.29;102111.72;5035941;28;19917;-74
2024/01/23 06:30:59;;;;;;;;;;;;;;;20.76;31.25;102108.84;5031287;28;19952;-77
2024/01/23 06:33:24;;;;;;;;;;;;;;;20.77;31.44;102127.63;5045263;28;19917;-76
2024/01/23 06:35:49;;;;;;;;;;;;;;;20.80;31.46;102126.47;5041448;28;19917;-75
2024/01/23 06:38:15;;;;;;;;;;;;;;;20.81;31.22;102129.00;5029046;28;19971;-75
2024/01/23 06:40:40;;;;;;;;;;;;;;;20.85;31.53;102129.56;5043154;28;19913;-77
2024/01/23 06:43:05;;;;;;;;;;;;;;;20.87;31.34;102127.59;5039418;28;19924;-75
2024/01/23 06:45:30;;;;;;;;;;;;;;;20.89;31.05;102144.47;5032530;28;19924;-76
2024/01/23 06:47:55;;;;;;;;;;;;;;;20.89;31.11;102147.19;5031733;28;19957;-76
2024/01/23 06:50:21;;;;;;;;;;;;;;;20.91;31.04;102146.03;5040548;28;19916;-76
2024/01/23 06:52:46;;;;;;;;;;;;;;;20.93;31.33;102144.03;5049603;28;20673;-76
2024/01/23 06:55:11;;;;;;;;;;;;;;;20.96;31.22;102154.53;5045615;28;19977;-74
2024/01/23 06:57:37;;;;;;;;;;;;;;;20.97;30.80;102153.53;5040952;28;19920;-80
2024/01/23 07:00:03;;;;;;;;;;;;;;;21.00;30.98;102165.91;5036395;28;19918;-75
2024/01/23 07:02:28;;;;;;;;;;;;;;;21.03;31.26;102157.50;5031522;28;19913;-78
2024/01/23 07:04:53;;;;;;;;;;;;;;;21.06;31.17;102164.44;5028891;28;20278;-76
2024/01/23 07:07:19;;;;;;;;;;;;;;;21.08;30.81;102171.41;5030299;28;19921;-76
2024/01/23 07:09:44;;;;;;;;;;;;;;;21.10;30.86;102169.38;5043974;28;19936;-75
2024/01/23 07:12:09;;;;;;;;;;;;;;;21.10;31.04;102171.25;5037144;28;19920;-75
2024/01/23 07:14:34;;;;;;;;;;;;;;;21.10;31.17;102177.50;5038119;28;19921;-75
2024/01/23 07:16:59;;;;;;;;;;;;;;;21.09;31.00;102175.81;5048884;28;19913;-75
2024/01/23 07:19:25;;;;;;;;;;;;;;;21.13;31.19;102176.38;5040952;28;19960;-76
2024/01/23 07:21:50;;;;;;;;;;;;;;;21.13;30.86;102170.94;5039406;28;20269;-78
2024/01/23 07:24:17;;;;;;;;;;;;;;;21.14;31.09;102170.78;5036739;28;19936;-80
2024/01/23 07:26:42;;;;;;;;;;;;;;;21.15;30.94;102177.91;5031543;28;19937;-80
2024/01/23 07:29:07;;;;;;;;;;;;;;;21.16;31.05;102193.13;5032509;28;19928;-80
2024/01/23 07:31:33;;;;;;;;;;;;;;;21.18;31.04;102190.28;5044572;28;19921;-79
2024/01/23 07:33:59;;;;;;;;;;;;;;;21.20;30.78;102202.66;5036259;28;19921;-80
2024/01/23 07:36:24;;;;;;;;;;;;;;;21.22;30.71;102211.44;5038884;28;19913;-80
2024/01/23 07:38:49;;;;;;;;;;;;;;;21.23;30.85;102218.56;5046353;28;19913;-79
2024/01/23 07:41:14;;;;;;;;;;;;;;;21.26;30.86;102211.16;5036509;28;20468;-79
2024/01/23 07:43:39;;;;;;;;;;;;;;;21.28;30.81;102223.53;5036294;28;19975;-78
2024/01/23 07:46:05;;;;;;;;;;;;;;;21.28;30.82;102234.34;5045894;28;19988;-81
2024/01/23 07:48:30;;;;;;;;;;;;;;;21.29;30.85;102227.94;5049298;28;19917;-81
2024/01/23 07:50:55;;;;;;;;;;;;;;;21.31;30.78;102228.63;5048659;28;19913;-78
2024/01/23 07:53:20;;;;;;;;;;;;;;;21.33;30.69;102256.41;5036204;28;19918;-81
2024/01/23 07:55:46;;;;;;;;;;;;;;;21.35;30.71;102265.22;5034285;28;20540;-80
2024/01/23 07:58:12;;;;;;;;;;;;;;;21.37;30.59;102262.38;5035032;28;20004;-79
2024/01/23 08:00:38;;;;;;;;;;;;;;;21.40;30.41;102268.31;5039056;28;19924;-80
2024/01/23 08:03:03;;;;;;;;;;;;;;;21.42;30.38;102270.88;5049325;28;19917;-80
2024/01/23 08:05:29;;;;;;;;;;;;;;;21.44;30.61;102267.00;5049934;28;19917;-80
2024/01/23 08:07:54;;;;;;;;;;;;;;;21.45;30.30;102266.03;5034378;28;19924;-80
2024/01/23 08:10:21;;;;;;;;;;;;;;;21.46;30.31;102275.84;5036925;28;19913;-80
2024/01/23 08:12:46;;;;;;;;;;;;;;;21.50;30.35;102278.25;5039701;28;19917;-79
2024/01/23 08:15:11;;;;;;;;;;;;;;;21.51;30.44;102266.41;5048760;28;19917;-79
2024/01/23 08:17:36;;;;;;;;;;;;;;;21.52;30.48;102278.94;5033380;28;19981;-78
2024/01/23 08:20:01;;;;;;;;;;;;;;;21.54;30.18;102276.94;5038367;28;19914;-81
2024/01/23 08:22:27;;;;;;;;;;;;;;;21.56;30.30;102280.34;5039831;28;19929;-80
2024/01/23 08:24:52;;;;;;;;;;;;;;;21.58;30.23;102283.72;5039976;28;19938;-80
2024/01/23 08:27:17;;;;;;;;;;;;;;;21.58;30.32;102276.47;5043250;28;19920;-80
2024/01/23 08:29:42;;;;;;;;;;;;;;;21.19;30.31;102219.00;5048072;28;19913;-80
2024/01/23 08:32:07;;;;;;;;;;;;;;;21.60;30.04;102292.56;5040997;28;19913;-80
2024/01/23 08:34:33;;;;;;;;;;;;;;;21.63;30.07;102284.97;5035074;28;19917;-79
2024/01/23 08:36:58;;;;;;;;;;;;;;;21.65;30.19;102298.34;5036678;28;19921;-80
2024/01/23 08:39:23;;;;;;;;;;;;;;;21.68;30.34;102289.94;5043192;28;19918;-80
2024/01/23 08:41:48;;;;;;;;;;;;;;;21.70;30.06;102288.75;5037570;28;20034;-79
2024/01/23 08:44:13;;;;;;;;;;;;;;;21.73;30.16;102311.97;5035193;28;19913;-81
2024/01/23 08:46:39;;;;;;;;;;;;;;;21.74;30.01;102289.31;5033641;28;19917;-80
2024/01/23 08:49:04;;;;;;;;;;;;;;;21.77;29.78;102307.97;5045239;28;20378;-81
2024/01/23 08:51:29;;;;;;;;;;;;;;;21.80;29.90;102302.25;5043065;28;19917;-80
2024/01/23 08:53:55;;;;;;;;;;;;;;;21.81;29.96;102306.66;5031055;28;20718;-81
2024/01/23 08:56:23;;;;;;;;;;;;;;;21.84;29.68;102316.31;5037159;28;19913;-80
2024/01/23 08:58:49;;;;;;;;;;;;;;;21.85;29.93;102310.75;5045154;28;19923;-80
2024/01/23 09:01:14;;;;;;;;;;;;;;;21.88;29.92;102312.31;5052068;28;19913;-79
2024/01/23 09:03:39;;;;;;;;;;;;;;;21.89;29.69;102317.56;5046934;28;20005;-80
2024/01/23 09:06:04;;;;;;;;;;;;;;;21.90;29.81;102305.72;5045551;28;19972;-79
2024/01/23 09:08:30;;;;;;;;;;;;;;;21.93;30.00;102305.41;5028665;28;20509;-79
2024/01/23 09:10:55;;;;;;;;;;;;;;;21.96;29.59;102320.47;5035925;28;19977;-80
2024/01/23 09:13:21;;;;;;;;;;;;;;;21.99;29.52;102322.88;5033623;28;19913;-80
2024/01/23 09:15:46;;;;;;;;;;;;;;;;;;5041461;28;19918;-80
2024/01/23 09:18:12;;;;;;;;;;;;;;;22.00;29.84;102318.31;5045280;28;19917;-80
2024/01/23 09:20:37;;;;;;;;;;;;;;;22.03;29.56;102323.44;5035512;28;19943;-75
2024/01/23 09:23:03;;;;;;;;;;;;;;;22.05;29.63;102333.13;5036623;28;19917;-80
2024/01/23 09:25:28;;;;;;;;;;;;;;;22.07;29.49;102330.25;5046963;28;19913;-80
2024/01/23 09:27:53;;;;;;;;;;;;;;;22.08;29.39;102335.50;5041651;28;19913;-80
2024/01/23 09:30:18;;;;;;;;;;;;;;;22.10;29.44;102346.19;5037788;28;19913;-80
2024/01/23 09:32:43;;;;;;;;;;;;;;;22.10;29.42;102347.03;5038027;28;19913;-80
2024/01/23 09:35:11;;;;;;;;;;;;;;;22.13;29.41;102351.31;5035324;28;19917;-79
2024/01/23 09:37:36;;;;;;;;;;;;;;;22.13;29.31;102357.59;5031114;28;19921;-79
2024/01/23 09:40:01;;;;;;;;;;;;;;;22.16;29.33;102362.69;5045102;28;19960;-80
2024/01/23 09:42:26;;;;;;;;;;;;;;;22.17;29.27;102371.66;5043878;28;19921;-80
2024/01/23 09:44:52;;;;;;;;;;;;;;;22.20;29.26;102366.78;5032938;28;19917;-80
2024/01/23 09:47:17;;;;;;;;;;;;;;;22.23;29.32;102371.06;5038016;28;19918;-79
2024/01/23 09:49:42;;;;;;;;;;;;;;;22.26;29.20;102372.59;5033987;28;19988;-79
2024/01/23 09:52:07;;;;;;;;;;;;;;;22.27;29.26;102377.03;5034367;28;19924;-76
2024/01/23 09:54:32;;;;;;;;;;;;;;;22.29;29.12;102378.56;5043926;28;19917;-80
2024/01/23 09:56:58;;;;;;;;;;;;;;;22.29;29.19;102359.59;5039942;28;19913;-79
2024/01/23 09:59:24;;;;;;;;;;;;;;;22.32;29.11;102370.13;5040259;28;19944;-78
2024/01/23 10:01:49;;;;;;;;;;;;;;;22.33;29.06;102374.53;5039370;28;19917;-80
2024/01/23 10:04:15;;;;;;;;;;;;;;;22.36;29.32;102376.09;5034529;28;20363;-80
2024/01/23 10:06:40;;;;;;;;;;;;;;;22.37;29.17;102369.66;5028978;28;19917;-80
2024/01/23 10:09:05;;;;;;;;;;;;;;;22.39;29.22;102375.78;5042917;28;19970;-80
2024/01/23 10:11:34;;;;;;;;;;;;;;;22.39;29.06;102365.78;5048364;28;20300;-80
2024/01/23 10:14:00;;;;;;;;;;;;;;;22.43;29.18;102359.06;5042181;28;19996;-81
2024/01/23 10:16:26;;;;;;;;;;;;;;;22.47;29.29;102356.84;5043696;28;19917;-78
2024/01/23 10:18:51;;;;;;;;;;;;;;;22.49;29.35;102360.28;5039395;28;19920;-81
2024/01/23 10:21:21;;;;;;;;;;;;;;;22.51;29.13;102368.25;5034188;28;19917;-81
2024/01/23 10:23:47;;;;;;;;;;;;;;;22.53;29.26;102377.09;5027722;28;19913;-76
2024/01/23 10:26:12;;;;;;;;;;;;;;;22.57;29.42;102365.75;5035414;28;19917;-78
2024/01/23 10:28:38;;;;;;;;;;;;;;;22.59;29.14;102363.72;5042553;28;19928;-80
2024/01/23 10:31:03;;;;;;;;;;;;;;;22.66;28.98;102381.09;5039758;28;19913;-81
2024/01/23 10:33:28;;;;;;;;;;;;;;;22.73;29.08;102372.34;5038833;28;20607;-75
2024/01/23 10:35:54;;;;;;;;;;;;;;;22.75;28.95;102381.13;5040789;28;19921;-77
2024/01/23 10:38:19;;;;;;;;;;;;;;;22.77;29.01;102373.69;5042880;28;19913;-78
2024/01/23 10:40:45;;;;;;;;;;;;;;;22.80;29.00;102376.94;5033882;28;19920;-76
2024/01/23 10:43:11;;;;;;;;;;;;;;;22.82;28.93;102366.78;5034122;28;19918;-77
2024/01/23 10:45:36;;;;;;;;;;;;;;;22.87;28.75;102360.88;5044736;28;19917;-77
2024/01/23 10:48:02;;;;;;;;;;;;;;;22.90;28.87;102364.16;5033152;28;19924;-79
2024/01/23 10:50:29;;;;;;;;;;;;;;;22.95;28.75;102355.56;5035790;28;19943;-78
2024/01/23 10:52:54;;;;;;;;;;;;;;;22.99;28.81;102353.38;5038499;28;19974;-77
2024/01/23 10:55:21;;;;;;;;;;;;;;;23.02;28.87;102372.88;5036815;28;20020;-79
2024/01/23 10:57:47;;;;;;;;;;;;;;;23.04;28.92;102375.44;5041183;28;19949;-78
2024/01/23 11:00:13;;;;;;;;;;;;;;;23.07;28.66;102369.69;5032854;28;19913;-79
2024/01/23 11:02:59;;;;;;;;;;;;;;;23.10;28.65;102359.34;5037490;28;19973;-72
2024/01/23 11:05:28;;;;;;;;;;;;;;;23.15;28.89;102353.44;5042022;28;19918;-76
2024/01/23 11:08:16;;;;;;;;;;;;;;;23.22;28.55;102353.66;5035603;28;19981;-75
2024/01/23 11:10:47;;;;;;;;;;;;;;;23.28;28.81;102342.13;5003598;28;19917;-75
2024/01/23 11:13:17;;;;;;;;;;;;;;;23.32;28.80;102351.66;5000910;28;19924;-74
2024/01/23 11:15:42;;;;;;;;;;;;;;;23.36;28.44;102362.03;5011428;28;19922;-75
2024/01/23 11:18:20;;;;;;;;;;;;;;;23.42;28.40;102365.97;4991793;28;19965;-75
2024/01/23 11:21:00;;;;;;;;;;;;;;;23.44;28.54;102356.63;5005238;28;19914;-74
2024/01/23 11:23:25;;;;;;;;;;;;;;;23.48;28.33;102343.56;5008919;28;19926;-76
2024/01/23 11:26:19;;;;;;;;;;;;;;;23.50;28.28;102343.44;5007764;28;19941;-75
2024/01/23 11:28:47;;;;;;;;;;;;;;;23.54;28.53;102344.81;5001752;28;19914;-74
2024/01/23 11:31:13;;;;;;;;;;;;;;;23.58;28.39;102328.00;4999018;28;19918;-74
2024/01/23 11:33:38;;;;;;;;;;;;;;;23.65;28.37;102334.50;5017251;28;19914;-75
2024/01/23 11:36:07;;;;;;;;;;;;;;;23.71;28.06;102327.56;5003170;28;19921;-75
2024/01/23 11:38:44;;;;;;;;;;;;;;;23.76;28.11;102348.78;4999072;28;19913;-76
2024/01/23 11:41:39;;;;;;;;;;;;;;;23.81;28.30;102349.97;5006190;28;19918;-76
2024/01/23 11:44:05;;;;;;;;;;;;;;;23.85;27.90;102339.66;5005079;28;20552;-77
2024/01/23 11:46:31;;;;;;;;;;;;;;;23.86;27.96;102330.47;4998104;28;19925;-76
2024/01/23 11:48:56;;;;;;;;;;;;;;;23.83;27.68;102323.53;5007797;28;20433;-76
2024/01/23 11:51:22;;;;;;;;;;;;;;;23.81;28.21;102317.41;5002132;28;20378;-76
2024/01/23 11:53:47;;;;;;;;;;;;;;;23.77;27.99;102310.59;4991427;28;19926;-76
2024/01/23 11:56:12;;;;;;;;;;;;;;;23.74;28.04;102300.06;5019518;28;19924;-77
2024/01/23 11:58:38;;;;;;;;;;;;;;;23.73;28.18;102287.50;5004378;28;19953;-76
2024/01/23 12:01:03;;;;;;;;;;;;;;;23.74;28.24;102281.03;5001932;28;19973;-76
2024/01/23 12:03:29;;;;;;;;;;;;;;;23.73;28.10;102287.50;5000828;28;19924;-76
2024/01/23 12:05:54;;;;;;;;;;;;;;;23.72;28.27;102280.38;4997124;28;19918;-76
2024/01/23 12:08:20;;;;;;;;;;;;;;;23.73;28.31;102282.06;5019346;28;19969;-76
2024/01/23 12:10:46;;;;;;;;;;;;;;;23.71;28.13;102273.25;5001436;28;19918;-76
2024/01/23 12:13:11;;;;;;;;;;;;;;;23.70;28.07;102274.25;4995421;28;19980;-76
2024/01/23 12:15:37;;;;;;;;;;;;;;;23.68;28.30;102277.16;5015106;28;19922;-76
2024/01/23 12:18:02;;;;;;;;;;;;;;;23.66;28.31;102283.75;5007181;28;19977;-76
2024/01/23 12:20:27;;;;;;;;;;;;;;;23.66;28.49;102268.34;5014923;28;19918;-76
2024/01/23 12:22:52;;;;;;;;;;;;;;;23.66;28.29;102272.88;5011281;28;19920;-76
2024/01/23 12:25:18;;;;;;;;;;;;;;;23.66;28.53;102260.19;5009984;28;20003;-76
2024/01/23 12:27:43;;;;;;;;;;;;;;;23.66;28.25;102256.59;4998411;28;19924;-76
2024/01/23 12:30:12;;;;;;;;;;;;;;;23.67;28.33;102242.88;4995947;28;19945;-77